United Spirit — ELYB2 — position and weather

sailwx.info

Track history (hours):
 
Tides and Currents Weather Stations Pressure Air Temp Water Temp Dewpoint Dewpoint Depression Visibility Wind Speed Wind Dir Waves Ship Positions

United Spirit

Last reported at 2017-Jun-25 22:29 UTC. Time now 2017-Jun-25 22:43 UTC.
Position N 35°28' E 139°41'.

Type: Cargo ship. MMSI: 636011280.

Date/timePositionNaut miles runAvg speedWind from/ knotsBaromVisibWave heightAir tempDewpointWater temp
2017-Jun-25 22:29N 35°28' E 139°41'0 0.0
2017-Jun-25 22:00N 35°28' E 139°41'1 2.2
2017-Jun-25 21:30N 35°28' E 139°42'5 9.8
2017-Jun-25 21:00N 35°24' E 139°46'611.9
2017-Jun-25 20:30N 35°19' E 139°44'612.1
2017-Jun-25 20:00N 35°13' E 139°47'5 9.1
2017-Jun-25 19:29N 35°08' E 139°47'3 5.0
2017-Jun-25 18:54N 35°06' E 139°46'2 5.2
2017-Jun-25 18:29N 35°04' E 139°45'6 5.4
2017-Jun-25 17:24N 34°59' E 139°41'23 3.7
2017-Jun-25 11:19N 34°57' E 140°09'  
2017-Jun-21 08:53N 35°02' E 139°41'2 4.8
2017-Jun-21 08:27N 35°04' E 139°42'3 5.5
2017-Jun-21 07:56N 35°06' E 139°44'3 7.2
2017-Jun-21 07:30N 35°09' E 139°45'3 6.0
2017-Jun-21 07:01N 35°12' E 139°45'4 8.7
2017-Jun-21 06:30N 35°16' E 139°45'5 9.6
2017-Jun-21 06:00N 35°21' E 139°42'5 9.1
2017-Jun-21 05:30N 35°25' E 139°42'2 4.7
2017-Jun-21 05:00N 35°27' E 139°41'0 0.0
2017-Jun-21 04:30N 35°27' E 139°41'0 0.0
2017-Jun-21 04:00N 35°27' E 139°41'0 0.0
2017-Jun-21 03:30N 35°27' E 139°41'0 0.0
2017-Jun-21 03:00N 35°27' E 139°41'0 0.0
2017-Jun-21 02:30N 35°27' E 139°41'0 0.0
2017-Jun-21 02:00N 35°27' E 139°41'0 0.0
2017-Jun-21 01:30N 35°27' E 139°41'0 0.0
2017-Jun-21 01:00N 35°27' E 139°41'0 0.0
2017-Jun-21 00:30N 35°27' E 139°41'0 0.0
2017-Jun-21 00:00N 35°27' E 139°41'0 0.0
2017-Jun-20 23:30N 35°27' E 139°41'0 0.0
2017-Jun-20 23:00N 35°27' E 139°41'0 0.0
2017-Jun-20 22:30N 35°27' E 139°41'0 0.0
2017-Jun-20 22:00N 35°27' E 139°41'1 2.7
2017-Jun-20 21:30N 35°26' E 139°42'3 6.7
2017-Jun-20 21:00N 35°23' E 139°43'611.8
2017-Jun-20 20:30N 35°17' E 139°45'611.9
2017-Jun-20 20:00N 35°12' E 139°47'8 7.7
2017-Jun-20 18:57N 35°04' E 139°45'7 8.7
2017-Jun-20 18:07N 34°57' E 139°41'  
Track history (hours):
 
Tides and Currents Weather Stations Pressure Air Temp Water Temp Dewpoint Dewpoint Depression Visibility Wind Speed Wind Dir Waves Ship Positions

United Spirit

Last reported at 2017-Jun-25 22:29 UTC. Time now 2017-Jun-25 22:43 UTC.
Position N 35°28' E 139°41'.

Type: Cargo ship. MMSI: 636011280.

Date/timePositionNaut miles runAvg speedWind from/ knotsBaromVisibWave heightAir tempDewpointWater temp
2017-Jun-25 22:29N 35°28' E 139°41'0 0.0
2017-Jun-25 22:00N 35°28' E 139°41'1 2.2
2017-Jun-25 21:30N 35°28' E 139°42'5 9.8
2017-Jun-25 21:00N 35°24' E 139°46'611.9
2017-Jun-25 20:30N 35°19' E 139°44'612.1
2017-Jun-25 20:00N 35°13' E 139°47'5 9.1
2017-Jun-25 19:29N 35°08' E 139°47'3 5.0
2017-Jun-25 18:54N 35°06' E 139°46'2 5.2
2017-Jun-25 18:29N 35°04' E 139°45'6 5.4
2017-Jun-25 17:24N 34°59' E 139°41'23 3.7
2017-Jun-25 11:19N 34°57' E 140°09'  
2017-Jun-21 08:53N 35°02' E 139°41'2 4.8
2017-Jun-21 08:27N 35°04' E 139°42'3 5.5
2017-Jun-21 07:56N 35°06' E 139°44'3 7.2
2017-Jun-21 07:30N 35°09' E 139°45'3 6.0
2017-Jun-21 07:01N 35°12' E 139°45'4 8.7
2017-Jun-21 06:30N 35°16' E 139°45'5 9.6
2017-Jun-21 06:00N 35°21' E 139°42'5 9.1
2017-Jun-21 05:30N 35°25' E 139°42'2 4.7
2017-Jun-21 05:00N 35°27' E 139°41'0 0.0
2017-Jun-21 04:30N 35°27' E 139°41'0 0.0
2017-Jun-21 04:00N 35°27' E 139°41'0 0.0
2017-Jun-21 03:30N 35°27' E 139°41'0 0.0
2017-Jun-21 03:00N 35°27' E 139°41'0 0.0
2017-Jun-21 02:30N 35°27' E 139°41'0 0.0
2017-Jun-21 02:00N 35°27' E 139°41'0 0.0
2017-Jun-21 01:30N 35°27' E 139°41'0 0.0
2017-Jun-21 01:00N 35°27' E 139°41'0 0.0
2017-Jun-21 00:30N 35°27' E 139°41'0 0.0
2017-Jun-21 00:00N 35°27' E 139°41'0 0.0
2017-Jun-20 23:30N 35°27' E 139°41'0 0.0
2017-Jun-20 23:00N 35°27' E 139°41'0 0.0
2017-Jun-20 22:30N 35°27' E 139°41'0 0.0
2017-Jun-20 22:00N 35°27' E 139°41'1 2.7
2017-Jun-20 21:30N 35°26' E 139°42'3 6.7
2017-Jun-20 21:00N 35°23' E 139°43'611.8
2017-Jun-20 20:30N 35°17' E 139°45'611.9
2017-Jun-20 20:00N 35°12' E 139°47'8 7.7
2017-Jun-20 18:57N 35°04' E 139°45'7 8.7
2017-Jun-20 18:07N 34°57' E 139°41'  

Dump ship's entire track history